»·PEaware :: N491H KPSP-KLAS

N491H :: KPSP-KLAS

FLIGHT INFORMATION

Flight Status: Arrived
Operator: Privately registered:
United States
More flights under this callsign
Pilot: Edward H. (2712)
Aircraft: CESSNA 172 SKYHAWK
(C172)
More flights by this aircraft type
Origin: KPSP Palm Springs Intl
United States
Destination: KLAS McCarran Intl
United States
More flights between these airports :: More routes between these airports
Route: +
File this flight plan on PilotEdge
Remarks:
Altitude:
(Current/Filed)
0ft
Speed:
(Current/Filed)
0kts
Departed: 17-Jun-18 11:41 AM
Arrived: 17-Jun-18 01:02 PM
Distance/Time
Traveled:
151nm/1:21
Distance/Time
To Go:
Arrived

Flight Plot

Page will automatically refresh every two minutes.

Flight plan parsing failed; only flown route is shown


Map Options




Map Legend


Flown Route
Filed Route
Departure Airport
Arrival Airport
Navaid (VOR, NDB)
Fix

Horizontal Profiles

Position Reports

Time Latitude Longitude Heading Altitude Ground
Speed
17-Jun-18 11:34 33.822563 -116.496403 225 481ft 0kts
17-Jun-18 11:35 33.822563 -116.496403 225 481ft 0kts
17-Jun-18 11:36 33.822563 -116.496403 225 481ft 0kts
17-Jun-18 11:37 33.822563 -116.496403 225 481ft 0kts
17-Jun-18 11:38 33.822563 -116.496403 225 481ft 0kts
17-Jun-18 11:39 33.822874 -116.497504 319 481ft 15kts
17-Jun-18 11:40 33.824584 -116.499632 234 481ft 0kts
17-Jun-18 11:41 33.828984 -116.504132 323 498ft 68kts
17-Jun-18 11:42 33.845628 -116.513998 15 1056ft 78kts
17-Jun-18 11:43 33.860708 -116.494792 18 1627ft 78kts
17-Jun-18 11:44 33.877185 -116.477754 40 2177ft 80kts
17-Jun-18 11:45 33.890953 -116.455989 44 2691ft 83kts
17-Jun-18 11:46 33.909085 -116.440461 25 3177ft 82kts
17-Jun-18 11:47 33.928315 -116.426682 26 3660ft 82kts
17-Jun-18 11:48 33.947557 -116.418011 355 4127ft 76kts
17-Jun-18 11:49 33.969312 -116.410709 12 4598ft 74kts
17-Jun-18 11:50 33.985235 -116.402026 17 4958ft 74kts
17-Jun-18 11:51 34.004101 -116.389712 16 5343ft 78kts
17-Jun-18 11:52 34.022954 -116.376237 9 5733ft 79kts
17-Jun-18 11:53 34.044570 -116.367384 14 6005ft 91kts
17-Jun-18 11:54 34.068274 -116.354282 17 6296ft 97kts
17-Jun-18 11:55 34.092936 -116.339986 17 6587ft 99kts
17-Jun-18 11:56 34.117218 -116.325850 18 6871ft 100kts
17-Jun-18 11:57 34.141449 -116.311751 18 7153ft 100kts
17-Jun-18 11:58 34.166439 -116.297178 18 7446ft 99kts
17-Jun-18 11:59 34.191916 -116.282347 19 7611ft 110kts
17-Jun-18 12:00 34.221403 -116.265025 20 7550ft 117kts
17-Jun-18 12:01 34.250426 -116.248086 20 7553ft 115kts
17-Jun-18 12:02 34.278816 -116.231492 20 7554ft 114kts
17-Jun-18 12:03 34.307568 -116.214731 20 7554ft 113kts
17-Jun-18 12:04 34.336043 -116.198053 20 7554ft 114kts
17-Jun-18 12:05 34.364539 -116.181356 20 7554ft 114kts
17-Jun-18 12:06 34.392949 -116.164675 20 7554ft 114kts
17-Jun-18 12:07 34.421427 -116.148013 20 7554ft 113kts
17-Jun-18 12:08 34.449887 -116.131312 20 7554ft 114kts
17-Jun-18 12:09 34.478452 -116.114536 20 7554ft 114kts
17-Jun-18 12:10 34.507108 -116.097695 20 7554ft 114kts
17-Jun-18 12:11 34.535784 -116.080825 20 7554ft 114kts
17-Jun-18 12:12 34.564509 -116.063911 20 7554ft 115kts
17-Jun-18 12:13 34.593205 -116.047000 20 7554ft 115kts
17-Jun-18 12:14 34.621954 -116.030046 20 7554ft 115kts
17-Jun-18 12:15 34.645875 -116.015929 20 7554ft 115kts
17-Jun-18 12:16 34.674601 -115.998959 20 7554ft 114kts
17-Jun-18 12:17 34.703207 -115.982076 20 7555ft 114kts
17-Jun-18 12:18 34.731917 -115.965086 20 7555ft 115kts
17-Jun-18 12:19 34.760624 -115.948084 20 7555ft 115kts
17-Jun-18 12:20 34.789436 -115.931014 20 7555ft 115kts
17-Jun-18 12:21 34.822109 -115.911620 19 7646ft 108kts
17-Jun-18 12:22 34.845111 -115.898018 19 7648ft 114kts
17-Jun-18 12:23 34.874628 -115.880614 30 7646ft 117kts
17-Jun-18 12:24 34.904493 -115.862984 27 7644ft 122kts
17-Jun-18 12:25 34.935625 -115.844928 28 7640ft 126kts
17-Jun-18 12:26 34.967439 -115.826082 28 7638ft 128kts
17-Jun-18 12:27 34.999724 -115.806426 30 7638ft 131kts
17-Jun-18 12:28 35.032656 -115.786475 29 7637ft 133kts
17-Jun-18 12:29 35.065906 -115.766552 29 7628ft 134kts
17-Jun-18 12:30 35.099573 -115.746418 29 7617ft 135kts
17-Jun-18 12:31 35.132489 -115.726737 27 7593ft 136kts
17-Jun-18 12:32 35.163701 -115.708057 27 7576ft 136kts
17-Jun-18 12:33 35.198003 -115.687495 25 7550ft 138kts
17-Jun-18 12:34 35.232771 -115.666674 26 7546ft 139kts
17-Jun-18 12:35 35.267374 -115.645904 25 7544ft 139kts
17-Jun-18 12:36 35.302145 -115.625007 26 7544ft 139kts
17-Jun-18 12:37 35.336893 -115.604121 26 7546ft 138kts
17-Jun-18 12:38 35.371446 -115.583316 25 7549ft 139kts
17-Jun-18 12:39 35.406290 -115.562321 25 7544ft 139kts
17-Jun-18 12:40 35.441045 -115.541377 25 7544ft 139kts
17-Jun-18 12:41 35.475700 -115.520469 25 7545ft 139kts
17-Jun-18 12:42 35.510399 -115.499497 26 7548ft 140kts
17-Jun-18 12:43 35.545259 -115.478421 26 7550ft 140kts
17-Jun-18 12:44 35.580215 -115.457248 25 7550ft 140kts
17-Jun-18 12:45 35.615277 -115.435990 25 7547ft 140kts
17-Jun-18 12:46 35.650056 -115.414871 26 7548ft 140kts
17-Jun-18 12:47 35.685040 -115.393617 25 7550ft 139kts
17-Jun-18 12:48 35.719899 -115.372430 26 7546ft 140kts
17-Jun-18 12:49 35.754800 -115.351183 26 7547ft 140kts
17-Jun-18 12:50 35.785983 -115.332186 26 7542ft 137kts
17-Jun-18 12:51 35.821380 -115.310603 26 7213ft 152kts
17-Jun-18 12:52 35.857177 -115.288753 28 7049ft 135kts
17-Jun-18 12:53 35.889829 -115.268837 27 7043ft 129kts
17-Jun-18 12:54 35.921701 -115.250118 15 6872ft 129kts
17-Jun-18 12:55 35.956520 -115.239141 8 6357ft 140kts
17-Jun-18 12:56 35.994814 -115.226190 21 5572ft 147kts
17-Jun-18 12:57 36.032442 -115.206136 27 4469ft 149kts
17-Jun-18 12:58 36.067756 -115.183704 27 3419ft 146kts
17-Jun-18 12:59 36.099021 -115.165560 7 3159ft 117kts
17-Jun-18 13:00 36.116044 -115.152328 135 3191ft 72kts
17-Jun-18 13:01 36.103726 -115.154122 199 2523ft 51kts
17-Jun-18 13:02 36.094279 -115.159572 213 2185ft 19kts
17-Jun-18 13:03 36.094208 -115.160817 295 2185ft 0kts
17-Jun-18 13:04 36.094210 -115.160820 299 2185ft 0kts
17-Jun-18 13:05 36.093066 -115.163397 259 2185ft 2kts

Navigation Log

Ident Type
Flight plan parsing failed, navigation log unavailable